createdAt,value
2023-04-23T00:01:48.065Z,20.52
2023-04-23T00:04:16.469Z,19.77
2023-04-23T00:06:43.404Z,18.50
2023-04-23T00:09:14.052Z,18.40
2023-04-23T00:11:40.727Z,20.80
2023-04-23T00:14:07.462Z,19.67
2023-04-23T00:16:34.226Z,18.23
2023-04-23T00:19:01.011Z,19.75
2023-04-23T00:21:27.651Z,19.75
2023-04-23T00:23:55.976Z,20.23
2023-04-23T00:26:22.356Z,22.10
2023-04-23T00:28:49.135Z,20.25
2023-04-23T00:31:15.741Z,20.90
2023-04-23T00:33:42.329Z,20.15
2023-04-23T00:36:09.128Z,21.13
2023-04-23T00:38:36.118Z,21.05
2023-04-23T00:41:02.828Z,22.75
2023-04-23T00:43:29.554Z,22.95
2023-04-23T00:45:56.569Z,22.80
2023-04-23T00:48:24.287Z,20.60
2023-04-23T00:50:59.203Z,20.80
2023-04-23T00:53:27.263Z,20.88
2023-04-23T00:55:53.973Z,21.20
2023-04-23T00:58:23.219Z,20.42
2023-04-23T01:00:51.900Z,19.48
2023-04-23T01:03:21.781Z,20.40
2023-04-23T01:05:51.501Z,18.50
2023-04-23T01:08:18.647Z,19.05
2023-04-23T01:10:46.244Z,18.40
2023-04-23T01:13:15.755Z,18.50
2023-04-23T01:15:44.155Z,17.63
2023-04-23T01:18:12.683Z,17.13
2023-04-23T01:20:40.342Z,17.58
2023-04-23T01:23:07.086Z,18.25
2023-04-23T01:25:35.150Z,18.38
2023-04-23T01:28:01.947Z,17.88
2023-04-23T01:30:29.225Z,17.75
2023-04-23T01:32:56.602Z,17.75
2023-04-23T01:35:24.739Z,17.65
2023-04-23T01:37:54.450Z,18.15
2023-04-23T01:40:21.077Z,19.05
2023-04-23T01:42:51.058Z,16.33
2023-04-23T01:45:20.444Z,16.60
2023-04-23T01:47:50.684Z,15.57
2023-04-23T01:50:17.233Z,15.48
2023-04-23T01:52:45.606Z,16.50
2023-04-23T01:55:12.065Z,16.40
2023-04-23T01:57:38.758Z,16.67
2023-04-23T02:00:15.404Z,17.90
2023-04-23T02:02:43.663Z,17.00
2023-04-23T02:05:13.609Z,16.33
2023-04-23T02:07:40.639Z,16.70
2023-04-23T02:10:09.204Z,16.75
2023-04-23T02:12:36.961Z,16.77
2023-04-23T02:15:04.355Z,17.23
2023-04-23T02:17:30.942Z,17.15
2023-04-23T02:19:57.654Z,15.88
2023-04-23T02:22:26.430Z,17.00
2023-04-23T02:24:53.221Z,16.13
2023-04-23T02:27:20.226Z,16.75
2023-04-23T02:29:48.128Z,16.88
2023-04-23T02:32:15.106Z,16.60
2023-04-23T02:34:42.203Z,17.05
2023-04-23T02:37:08.900Z,17.65
2023-04-23T02:39:35.935Z,18.50
2023-04-23T02:42:02.441Z,18.42
2023-04-23T02:44:28.981Z,18.67
2023-04-23T02:46:56.151Z,17.70
2023-04-23T02:49:23.037Z,19.90
2023-04-23T02:51:49.679Z,18.58
2023-04-23T02:54:16.512Z,18.50
2023-04-23T02:56:43.009Z,20.15
2023-04-23T02:59:09.999Z,18.10
2023-04-23T03:01:37.048Z,17.55
2023-04-23T03:04:03.862Z,18.80
2023-04-23T03:06:32.061Z,17.85
2023-04-23T03:08:58.527Z,17.58
2023-04-23T03:11:25.448Z,17.27
2023-04-23T03:13:51.922Z,17.60
2023-04-23T03:16:18.594Z,16.42
2023-04-23T03:18:45.370Z,17.48
2023-04-23T03:21:11.981Z,15.57
2023-04-23T03:23:39.476Z,16.33
2023-04-23T03:26:05.893Z,14.30
2023-04-23T03:28:33.199Z,13.98
2023-04-23T03:30:59.740Z,14.50
2023-04-23T03:33:26.668Z,13.90
2023-04-23T03:35:53.204Z,14.25
2023-04-23T03:38:20.059Z,15.10
2023-04-23T03:40:46.966Z,13.80
2023-04-23T03:43:13.334Z,12.68
2023-04-23T03:45:39.760Z,13.25
2023-04-23T03:48:06.288Z,13.43
2023-04-23T03:50:34.765Z,13.50
2023-04-23T03:53:01.433Z,13.00
2023-04-23T03:55:28.304Z,13.00
2023-04-23T03:57:55.076Z,12.95
2023-04-23T04:00:21.748Z,13.00
2023-04-23T04:02:48.402Z,14.50
2023-04-23T04:05:15.142Z,12.20
2023-04-23T04:07:42.253Z,13.60
2023-04-23T04:10:09.106Z,13.10
2023-04-23T04:12:36.688Z,12.05
2023-04-23T04:15:04.844Z,10.85
2023-04-23T04:17:31.453Z,12.13
2023-04-23T04:19:57.934Z,10.70
2023-04-23T04:22:24.736Z,11.43
2023-04-23T04:24:53.307Z,10.85
2023-04-23T04:27:20.244Z,10.65
2023-04-23T04:29:46.847Z,11.02
2023-04-23T04:32:13.850Z,11.25
2023-04-23T04:34:40.791Z,11.00
2023-04-23T04:37:07.666Z,11.10
2023-04-23T04:39:34.316Z,9.85
2023-04-23T04:42:02.767Z,11.38
2023-04-23T04:44:30.675Z,10.27
2023-04-23T04:46:57.274Z,9.48
2023-04-23T04:49:24.173Z,10.10
2023-04-23T04:51:51.712Z,10.20
2023-04-23T04:54:18.156Z,9.70
2023-04-23T04:56:44.792Z,9.60
2023-04-23T04:59:11.201Z,10.65
2023-04-23T05:01:38.256Z,8.88
2023-04-23T05:04:04.983Z,9.85
2023-04-23T05:06:32.382Z,7.93
2023-04-23T05:08:59.258Z,9.80
2023-04-23T05:11:26.317Z,10.27
2023-04-23T05:13:52.924Z,9.52
2023-04-23T05:16:19.579Z,9.73
2023-04-23T05:18:46.499Z,7.68
2023-04-23T05:21:14.286Z,8.05
2023-04-23T05:23:41.089Z,7.10
2023-04-23T05:26:07.940Z,6.57
2023-04-23T05:28:34.777Z,7.07
2023-04-23T05:31:01.248Z,6.95
2023-04-23T05:33:33.409Z,6.72
2023-04-23T05:38:29.363Z,6.20
2023-04-23T05:40:55.872Z,5.97
2023-04-23T05:43:22.800Z,6.85
2023-04-23T05:45:49.378Z,6.93
2023-04-23T05:48:16.069Z,6.90
2023-04-23T05:50:42.805Z,7.47
2023-04-23T05:53:09.770Z,7.00
2023-04-23T05:55:36.778Z,7.05
2023-04-23T05:58:03.253Z,6.63
2023-04-23T06:00:30.386Z,7.53
2023-04-23T06:02:56.937Z,6.90
2023-04-23T06:05:23.663Z,6.70
2023-04-23T06:07:50.346Z,7.05
2023-04-23T06:10:16.898Z,6.90
2023-04-23T06:12:43.365Z,7.28
2023-04-23T06:15:10.839Z,7.45
2023-04-23T06:17:37.660Z,6.70
2023-04-23T06:20:05.127Z,6.32
2023-04-23T06:22:32.556Z,6.45
2023-04-23T06:24:59.377Z,6.70
2023-04-23T06:27:27.451Z,6.65
2023-04-23T06:29:53.963Z,6.35
2023-04-23T06:32:21.712Z,6.70
2023-04-23T06:35:00.043Z,6.43
2023-04-23T06:37:29.860Z,6.38
2023-04-23T06:39:56.703Z,6.15
2023-04-23T06:42:23.193Z,6.30
2023-04-23T06:44:49.794Z,6.35
2023-04-23T06:47:16.551Z,6.15
2023-04-23T06:49:42.978Z,6.28
2023-04-23T06:52:09.831Z,5.68
2023-04-23T06:54:36.250Z,5.43
2023-04-23T06:57:02.764Z,5.32
2023-04-23T06:59:29.148Z,5.50
2023-04-23T07:01:55.708Z,5.18
2023-04-23T07:04:22.524Z,5.82
2023-04-23T07:06:49.047Z,5.28
2023-04-23T07:09:15.524Z,5.20
2023-04-23T07:11:42.122Z,5.57
2023-04-23T07:14:09.268Z,5.07
2023-04-23T07:16:36.075Z,5.30
2023-04-23T07:19:02.864Z,5.45
2023-04-23T07:21:29.633Z,5.72
2023-04-23T07:24:06.686Z,5.38
2023-04-23T07:26:33.886Z,5.43
2023-04-23T07:29:01.291Z,5.13
2023-04-23T07:31:28.984Z,4.78
2023-04-23T07:33:56.205Z,4.53
2023-04-23T07:36:22.861Z,4.20
2023-04-23T07:38:49.582Z,4.63
2023-04-23T07:41:16.339Z,4.22
2023-04-23T07:43:42.834Z,4.20
2023-04-23T07:46:09.811Z,4.57
2023-04-23T07:48:36.413Z,4.20
2023-04-23T07:51:03.057Z,3.80
2023-04-23T07:53:30.071Z,4.40
2023-04-23T07:55:57.401Z,4.03
2023-04-23T07:58:26.817Z,4.43
2023-04-23T08:00:53.238Z,4.00
2023-04-23T08:03:21.452Z,4.18
2023-04-23T08:05:48.130Z,4.60
2023-04-23T08:08:14.707Z,4.10
2023-04-23T08:10:41.567Z,3.95
2023-04-23T08:13:08.376Z,3.78
2023-04-23T08:15:34.820Z,3.70
2023-04-23T08:18:01.475Z,4.03
2023-04-23T08:20:28.087Z,4.18
2023-04-23T08:22:55.593Z,4.38
2023-04-23T08:25:22.033Z,3.60
2023-04-23T08:27:48.626Z,3.85
2023-04-23T08:30:15.454Z,3.05
2023-04-23T08:32:42.075Z,3.50
2023-04-23T08:35:09.464Z,3.78
2023-04-23T08:37:36.006Z,3.63
2023-04-23T08:40:03.027Z,3.53
2023-04-23T08:42:55.139Z,3.78
2023-04-23T08:45:22.586Z,3.28
2023-04-23T08:47:49.991Z,3.65
2023-04-23T08:50:18.155Z,3.13
2023-04-23T08:52:52.651Z,2.72
2023-04-23T08:55:20.567Z,2.80
2023-04-23T08:57:48.093Z,2.70
2023-04-23T09:00:16.349Z,2.67
2023-04-23T09:02:46.064Z,2.75
2023-04-23T09:05:13.866Z,3.13
2023-04-23T09:07:41.118Z,2.80
2023-04-23T09:10:09.310Z,2.83
2023-04-23T09:12:36.945Z,2.90
2023-04-23T09:15:10.790Z,3.03
2023-04-23T09:17:44.398Z,2.88
2023-04-23T09:20:12.110Z,2.80
2023-04-23T09:22:47.948Z,3.05
2023-04-23T09:25:19.993Z,2.83
2023-04-23T09:27:48.217Z,2.70
2023-04-23T09:30:15.679Z,2.83
2023-04-23T09:32:43.866Z,2.53
2023-04-23T09:35:13.938Z,2.78
2023-04-23T09:37:48.648Z,2.78
2023-04-23T09:42:49.389Z,2.53
2023-04-23T09:45:16.232Z,2.13
2023-04-23T09:47:57.241Z,2.50
2023-04-23T09:50:36.616Z,2.38
2023-04-23T09:53:04.310Z,2.20
2023-04-23T09:55:38.964Z,2.28
2023-04-23T09:58:07.691Z,1.92
2023-04-23T10:00:36.627Z,2.15
2023-04-23T10:03:04.977Z,2.20
2023-04-23T10:05:41.036Z,2.58
2023-04-23T10:08:18.224Z,2.45
2023-04-23T10:11:02.433Z,2.63
2023-04-23T10:13:36.818Z,1.85
2023-04-23T10:16:18.214Z,2.88
2023-04-23T10:18:51.034Z,2.10
2023-04-23T10:21:17.944Z,2.35
2023-04-23T10:23:47.181Z,2.00
2023-04-23T10:26:16.650Z,2.10
2023-04-23T10:28:48.116Z,2.47
2023-04-23T10:31:15.644Z,1.70
2023-04-23T10:33:55.974Z,1.70
2023-04-23T10:36:27.410Z,1.73
2023-04-23T10:38:58.310Z,2.00
2023-04-23T10:41:36.915Z,1.75
2023-04-23T10:44:07.174Z,1.63
2023-04-23T10:46:36.479Z,1.80
2023-04-23T10:49:16.631Z,1.60
2023-04-23T10:52:18.081Z,1.42
2023-04-23T10:54:36.161Z,1.60
2023-04-23T10:57:04.744Z,2.05
2023-04-23T10:59:33.562Z,2.00
2023-04-23T11:02:11.475Z,1.45
2023-04-23T11:04:58.964Z,1.75
2023-04-23T11:07:33.115Z,1.77
2023-04-23T11:10:01.039Z,1.50
2023-04-23T11:12:27.544Z,1.50
2023-04-23T11:14:55.380Z,1.33
2023-04-23T11:17:31.142Z,1.33
2023-04-23T11:20:24.411Z,1.60
2023-04-23T11:22:52.321Z,1.65
2023-04-23T11:25:24.576Z,1.30
2023-04-23T11:27:53.583Z,1.30
2023-04-23T11:30:22.355Z,1.25
2023-04-23T11:32:51.176Z,1.30
2023-04-23T11:35:19.934Z,1.40
2023-04-23T11:37:48.314Z,1.13
2023-04-23T11:40:19.416Z,1.40
2023-04-23T11:42:48.167Z,1.10
2023-04-23T11:45:19.367Z,1.30
2023-04-23T11:47:48.736Z,1.15
2023-04-23T11:50:19.721Z,1.25
2023-04-23T11:52:47.261Z,1.23
2023-04-23T11:55:14.290Z,1.10
2023-04-23T11:57:51.904Z,1.30
2023-04-23T12:00:20.905Z,1.20
2023-04-23T12:03:04.101Z,1.30
2023-04-23T12:05:33.189Z,1.35
2023-04-23T12:08:15.484Z,1.63
2023-04-23T12:10:53.159Z,0.90
2023-04-23T12:13:31.127Z,1.20
2023-04-23T12:16:00.214Z,1.13
2023-04-23T12:18:31.182Z,1.40
2023-04-23T12:21:07.445Z,1.20
2023-04-23T12:23:35.956Z,0.95
2023-04-23T12:26:06.708Z,1.30
2023-04-23T12:28:33.152Z,1.13
2023-04-23T12:31:01.444Z,1.00
2023-04-23T12:33:31.350Z,1.00
2023-04-23T12:35:58.161Z,1.40
2023-04-23T12:38:29.601Z,1.30
2023-04-23T12:40:58.615Z,1.33
2023-04-23T12:43:26.621Z,1.33
2023-04-23T12:45:54.481Z,1.20
2023-04-23T12:48:20.894Z,1.55
2023-04-23T12:50:48.256Z,1.50
2023-04-23T12:53:15.340Z,1.52
2023-04-23T12:55:44.181Z,1.70
2023-04-23T12:58:10.849Z,1.35
2023-04-23T13:00:37.290Z,1.55
2023-04-23T13:03:04.362Z,1.52
2023-04-23T13:05:31.139Z,1.40
2023-04-23T13:07:57.558Z,1.80
2023-04-23T13:10:24.340Z,1.92
2023-04-23T13:12:50.768Z,2.20
2023-04-23T13:15:18.240Z,1.98
2023-04-23T13:17:46.566Z,2.33
2023-04-23T13:20:13.385Z,2.30
2023-04-23T13:22:39.740Z,2.35
2023-04-23T13:25:06.824Z,1.85
2023-04-23T13:27:33.206Z,2.40
2023-04-23T13:29:59.819Z,2.47
2023-04-23T13:32:28.297Z,2.45
2023-04-23T13:34:55.179Z,3.05
2023-04-23T13:37:21.600Z,2.35
2023-04-23T13:39:48.519Z,2.40
2023-04-23T13:42:14.868Z,2.53
2023-04-23T13:44:41.513Z,2.55
2023-04-23T13:47:08.321Z,2.72
2023-04-23T13:49:35.543Z,2.75
2023-04-23T13:52:07.122Z,2.45
2023-04-23T13:54:33.785Z,2.63
2023-04-23T13:57:01.084Z,2.42
2023-04-23T13:59:27.477Z,2.10
2023-04-23T14:01:54.317Z,2.20
2023-04-23T14:04:22.480Z,2.28
2023-04-23T14:06:49.412Z,2.10
2023-04-23T14:09:15.998Z,1.67
2023-04-23T14:11:42.600Z,2.17
2023-04-23T14:14:09.293Z,2.03
2023-04-23T14:16:36.252Z,1.65
2023-04-23T14:19:02.707Z,2.63
2023-04-23T14:21:29.414Z,2.20
2023-04-23T14:24:01.130Z,1.90
2023-04-23T14:26:44.780Z,1.80
2023-04-23T14:29:38.884Z,2.00
2023-04-23T14:32:06.337Z,2.22
2023-04-23T14:34:35.945Z,1.95
2023-04-23T14:37:03.180Z,1.75
2023-04-23T14:39:30.148Z,1.88
2023-04-23T14:41:56.587Z,2.10
2023-04-23T14:44:29.150Z,1.52
2023-04-23T14:46:56.712Z,1.63
2023-04-23T14:49:24.147Z,1.60
2023-04-23T14:51:55.413Z,1.70
2023-04-23T14:54:22.654Z,1.83
2023-04-23T14:56:50.573Z,1.70
2023-04-23T14:59:17.614Z,1.75
2023-04-23T15:01:44.193Z,1.70
2023-04-23T15:04:11.711Z,2.03
2023-04-23T15:06:40.315Z,1.55
2023-04-23T15:09:06.704Z,1.58
2023-04-23T15:11:33.150Z,1.52
2023-04-23T15:14:08.631Z,1.52
2023-04-23T15:16:48.243Z,1.50
2023-04-23T15:19:18.380Z,1.42
2023-04-23T15:21:46.010Z,1.60
2023-04-23T15:24:13.336Z,1.48
2023-04-23T15:26:40.070Z,1.70
2023-04-23T15:29:09.958Z,1.35
2023-04-23T15:31:37.492Z,1.90
2023-04-23T15:34:06.091Z,1.70
2023-04-23T15:36:33.563Z,1.52
2023-04-23T15:39:00.345Z,1.60
2023-04-23T15:41:27.470Z,1.30
2023-04-23T15:43:54.939Z,1.73
2023-04-23T15:46:21.482Z,1.42
2023-04-23T15:48:49.022Z,1.50
2023-04-23T15:51:16.134Z,1.55
2023-04-23T15:53:42.693Z,1.70
2023-04-23T15:56:09.076Z,1.58
2023-04-23T15:58:35.989Z,1.92
2023-04-23T16:01:03.041Z,1.48
2023-04-23T16:03:29.718Z,2.00
2023-04-23T16:05:56.298Z,1.55
2023-04-23T16:08:22.915Z,1.75
2023-04-23T16:10:49.415Z,1.38
2023-04-23T16:13:16.045Z,1.65
2023-04-23T16:15:42.451Z,1.70
2023-04-23T16:18:08.928Z,1.75
2023-04-23T16:20:36.725Z,1.77
2023-04-23T16:23:03.176Z,1.73
2023-04-23T16:25:29.812Z,1.52
2023-04-23T16:27:56.586Z,1.80
2023-04-23T16:30:23.808Z,1.80
2023-04-23T16:32:50.355Z,3.20
2023-04-23T16:35:18.222Z,1.85
2023-04-23T16:37:44.655Z,2.30
2023-04-23T16:40:11.288Z,2.58
2023-04-23T16:42:38.123Z,2.03
2023-04-23T16:45:05.160Z,1.83
2023-04-23T16:47:31.599Z,1.83
2023-04-23T16:49:58.237Z,1.50
2023-04-23T16:52:24.983Z,1.67
2023-04-23T16:54:51.523Z,1.50
2023-04-23T16:57:18.694Z,1.30
2023-04-23T16:59:45.251Z,1.55
2023-04-23T17:02:12.041Z,1.60
2023-04-23T17:04:38.937Z,1.42
2023-04-23T17:07:05.561Z,1.63
2023-04-23T17:09:32.398Z,1.38
2023-04-23T17:11:59.266Z,1.50
2023-04-23T17:14:26.959Z,1.50
2023-04-23T17:16:53.471Z,1.50
2023-04-23T17:19:20.064Z,1.48
2023-04-23T17:21:46.492Z,1.35
2023-04-23T17:24:13.015Z,1.30
2023-04-23T17:26:39.844Z,1.50
2023-04-23T17:29:06.619Z,1.13
2023-04-23T17:31:36.110Z,1.50
2023-04-23T17:34:04.678Z,1.20
2023-04-23T17:36:31.697Z,1.23
2023-04-23T17:38:58.246Z,1.13
2023-04-23T17:41:24.898Z,1.00
2023-04-23T17:43:51.356Z,1.30
2023-04-23T17:46:18.009Z,1.10
2023-04-23T17:48:44.888Z,1.13
2023-04-23T17:51:11.349Z,1.38
2023-04-23T17:53:37.749Z,1.17
2023-04-23T17:56:04.460Z,1.00
2023-04-23T17:58:31.135Z,1.20
2023-04-23T18:00:57.672Z,1.10
2023-04-23T18:03:26.541Z,1.08
2023-04-23T18:05:53.916Z,1.20
2023-04-23T18:08:21.189Z,1.30
2023-04-23T18:10:48.004Z,1.10
2023-04-23T18:13:14.918Z,1.10
2023-04-23T18:15:42.117Z,1.20
2023-04-23T18:18:09.410Z,1.23
2023-04-23T18:20:38.304Z,1.60
2023-04-23T18:23:06.437Z,2.00
2023-04-23T18:25:32.935Z,1.90
2023-04-23T18:27:59.661Z,2.08
2023-04-23T18:30:26.295Z,3.10
2023-04-23T18:33:24.917Z,2.40
2023-04-23T18:35:56.083Z,1.60
2023-04-23T18:38:34.166Z,2.72
2023-04-23T18:41:02.744Z,2.30
2023-04-23T18:43:29.579Z,2.25
2023-04-23T18:45:56.328Z,1.50
2023-04-23T18:48:35.152Z,1.20
2023-04-23T18:51:06.734Z,1.40
2023-04-23T18:53:33.142Z,1.17
2023-04-23T18:56:00.081Z,0.90
2023-04-23T18:58:27.732Z,2.85
2023-04-23T19:00:56.266Z,3.03
2023-04-23T19:03:26.785Z,3.20
2023-04-23T19:05:54.001Z,2.30
2023-04-23T19:08:22.998Z,1.80
2023-04-23T19:10:49.389Z,1.95
2023-04-23T19:13:16.769Z,1.50
2023-04-23T19:15:43.244Z,1.42
2023-04-23T19:18:10.078Z,1.38
2023-04-23T19:20:36.544Z,1.60
2023-04-23T19:23:04.821Z,1.27
2023-04-23T19:25:31.480Z,1.50
2023-04-23T19:27:58.314Z,0.98
2023-04-23T19:30:24.682Z,1.00
2023-04-23T19:32:51.084Z,1.20
2023-04-23T19:35:19.067Z,1.00
2023-04-23T19:37:46.184Z,1.15
2023-04-23T19:40:12.980Z,1.50
2023-04-23T19:42:39.522Z,1.10
2023-04-23T19:45:06.581Z,1.08
2023-04-23T19:47:38.825Z,0.98
2023-04-23T19:50:09.849Z,1.15
2023-04-23T19:52:36.824Z,1.08
2023-04-23T19:55:03.400Z,1.08
2023-04-23T19:57:29.956Z,1.05
2023-04-23T19:59:58.455Z,1.10
2023-04-23T20:02:25.481Z,1.30
2023-04-23T20:04:52.009Z,1.30
2023-04-23T20:07:18.482Z,1.00
2023-04-23T20:09:45.166Z,1.25
2023-04-23T20:12:13.419Z,1.40
2023-04-23T20:14:39.934Z,1.30
2023-04-23T20:17:07.766Z,1.25
2023-04-23T20:19:34.331Z,1.15
2023-04-23T20:22:00.904Z,1.30
2023-04-23T20:24:27.463Z,1.25
2023-04-23T20:26:54.387Z,0.90
2023-04-23T20:29:20.866Z,0.93
2023-04-23T20:31:49.782Z,1.17
2023-04-23T20:34:16.954Z,0.80
2023-04-23T20:36:47.098Z,0.88
2023-04-23T20:39:13.983Z,0.77
2023-04-23T20:41:40.836Z,0.80
2023-04-23T20:44:07.240Z,0.73
2023-04-23T20:46:33.797Z,0.70
2023-04-23T20:49:00.886Z,0.70
2023-04-23T20:51:33.152Z,0.70
2023-04-23T20:54:00.711Z,0.60
2023-04-23T20:56:28.029Z,0.70
2023-04-23T20:58:54.575Z,1.25
2023-04-23T21:01:21.513Z,0.70
2023-04-23T21:03:49.070Z,0.65
2023-04-23T21:06:15.748Z,0.50
2023-04-23T21:08:43.073Z,0.65
2023-04-23T21:11:11.559Z,0.52
2023-04-23T21:13:38.206Z,0.60
2023-04-23T21:16:05.397Z,0.57
2023-04-23T21:18:31.959Z,0.70
2023-04-23T21:20:58.423Z,0.60
2023-04-23T21:23:24.852Z,0.63
2023-04-23T21:25:51.624Z,0.50
2023-04-23T21:28:18.656Z,0.70
2023-04-23T21:30:49.690Z,0.60
2023-04-23T21:33:17.813Z,0.60
2023-04-23T21:35:44.952Z,0.60
2023-04-23T21:38:12.152Z,0.60
2023-04-23T21:40:39.559Z,0.50
2023-04-23T21:43:07.298Z,0.60
2023-04-23T21:45:34.036Z,0.60
2023-04-23T21:48:00.883Z,0.57
2023-04-23T21:50:29.492Z,0.55
2023-04-23T21:52:58.282Z,0.47
2023-04-23T21:55:29.293Z,0.60
2023-04-23T21:58:03.277Z,0.60
2023-04-23T22:00:40.731Z,0.60
2023-04-23T22:03:08.048Z,0.70
2023-04-23T22:05:36.198Z,0.50
2023-04-23T22:08:02.745Z,0.60
2023-04-23T22:10:29.801Z,0.60
2023-04-23T22:12:56.345Z,0.60
2023-04-23T22:15:23.111Z,0.80
2023-04-23T22:17:54.136Z,0.70
2023-04-23T22:20:23.707Z,0.68
2023-04-23T22:22:50.160Z,0.90
2023-04-23T22:25:17.989Z,0.77
2023-04-23T22:27:44.448Z,0.90
2023-04-23T22:30:11.204Z,0.80
2023-04-23T22:32:39.413Z,0.88
2023-04-23T22:35:07.225Z,0.90
2023-04-23T22:37:34.287Z,0.80
2023-04-23T22:40:01.382Z,1.00
2023-04-23T22:42:27.950Z,0.80
2023-04-23T22:44:54.441Z,0.60
2023-04-23T22:47:21.412Z,0.90
2023-04-23T22:49:47.917Z,0.68
2023-04-23T22:52:15.058Z,0.73
2023-04-23T22:54:42.524Z,0.80
2023-04-23T22:57:09.850Z,0.80
2023-04-23T22:59:36.559Z,0.60
2023-04-23T23:02:03.284Z,0.70
2023-04-23T23:04:29.784Z,0.70
2023-04-23T23:06:56.273Z,0.90
2023-04-23T23:09:23.146Z,0.70
2023-04-23T23:11:49.660Z,0.60
2023-04-23T23:14:17.567Z,0.70
2023-04-23T23:16:43.973Z,0.68
2023-04-23T23:19:12.220Z,0.77
2023-04-23T23:21:39.136Z,0.60
2023-04-23T23:24:05.945Z,0.57
2023-04-23T23:26:32.496Z,0.80
2023-04-23T23:28:58.866Z,0.80
2023-04-23T23:31:26.241Z,0.80
2023-04-23T23:33:53.772Z,0.60
2023-04-23T23:36:20.794Z,0.50
2023-04-23T23:38:47.498Z,0.70
2023-04-23T23:41:14.960Z,0.60
2023-04-23T23:43:42.079Z,0.80
2023-04-23T23:46:09.146Z,0.60
2023-04-23T23:48:35.760Z,0.60
2023-04-23T23:51:02.186Z,0.60
2023-04-23T23:53:31.067Z,0.70
2023-04-23T23:55:57.895Z,0.60
2023-04-23T23:58:24.258Z,1.00
